Catàleg de serveis del Meteocat
Campanya meteocatpedra

Dades de l'estació automàtica Algerri

?
?
Resum diari 21:30 TU
Dades diàries de l'estació meteorològica
Temperatura mitjana 8.3 °C
Temperatura màxima 13.2 °C 14:56 TU
Temperatura mínima 4.2 °C 1:34 TU
Humitat relativa mitjana 75%
Precipitació acumulada 0.0 mm
Ratxa màxima del vent (2 m) 19.1 km/h - 251º 17:50 TU
Irradiació solar global 8.5 MJ/m2

El tram horari està expressat en Temps Universal (TU). Cal sumar una hora en horari d'hivern i dues en horari d'estiu per passar a l'hora oficial.

Algerri

Metadades estació meteorol´gica
Municipi Algerri
Comarca Noguera
Altitud 301 m
Data alta 13.12.2000
Estat actual Operativa
Dades de període
Període
TU
TM
°C
TX
°C
TN
°C
HRM
%
PPT
mm
VVM (2 m)
km/h
DVM (2 m)
graus
VVX (2 m)
km/h
RS
W/m2
00:00 - 00:30 6.9 7.3 6.7 77 0.0 2.2 321 4.3 0
00:30 - 01:00 7.0 7.2 6.7 76 0.0 1.4 311 5.0 0
01:00 - 01:30 6.3 7.0 4.9 79 0.0 1.1 287 4.0 0
01:30 - 02:00 4.7 5.2 4.2 87 0.0 1.8 51 6.1 0
02:00 - 02:30 5.4 5.8 5.2 86 0.0 1.1 53 4.0 0
02:30 - 03:00 5.5 5.7 5.5 85 0.0 1.1 337 4.7 0
03:00 - 03:30 5.8 6.0 5.6 85 0.0 1.1 17 4.3 0
03:30 - 04:00 5.0 5.8 4.7 87 0.0 0.7 187 6.1 0
04:00 - 04:30 4.8 4.9 4.6 88 0.0 1.1 222 4.3 0
04:30 - 05:00 5.1 5.4 4.7 88 0.0 1.4 346 4.0 0
05:00 - 05:30 4.8 5.0 4.6 89 0.0 1.4 221 3.6 0
05:30 - 06:00 5.1 5.5 5.0 89 0.0 1.1 261 3.6 0
06:00 - 06:30 5.9 6.4 5.5 85 0.0 1.8 323 3.2 0
06:30 - 07:00 6.8 7.4 6.4 82 0.0 3.2 49 10.4 0
07:00 - 07:30 7.3 7.4 7.0 80 0.0 6.5 50 11.2 8
07:30 - 08:00 7.2 7.9 7.0 82 0.0 5.4 50 8.6 51
08:00 - 08:30 7.8 8.1 6.8 80 0.0 4.0 352 8.3 40
08:30 - 09:00 6.9 7.0 6.7 85 0.0 5.4 255 9.7 48
09:00 - 09:30 7.2 7.7 7.0 85 0.0 2.9 268 7.6 49
09:30 - 10:00 8.1 8.4 7.8 82 0.0 2.2 242 6.1 122
10:00 - 10:30 8.7 8.8 8.4 79 0.0 5.0 232 9.0 247
10:30 - 11:00 9.2 9.7 8.9 75 0.0 6.1 249 12.2 380
11:00 - 11:30 10.2 10.7 9.7 73 0.0 5.8 243 13.3 511
11:30 - 12:00 10.9 11.4 10.6 70 0.0 5.8 240 13.0 514
12:00 - 12:30 11.5 11.9 11.2 68 0.0 6.5 241 14.4 555
12:30 - 13:00 12.0 12.5 11.6 67 0.0 5.8 222 13.0 525
13:00 - 13:30 12.2 12.5 11.9 65 0.0 6.5 225 15.1 442
13:30 - 14:00 12.2 12.5 12.0 66 0.0 9.4 238 18.0 406
14:00 - 14:30 12.4 12.8 12.1 65 0.0 5.4 237 11.5 336
14:30 - 15:00 13.0 13.2 12.6 62 0.0 7.2 238 16.2 244
15:00 - 15:30 12.9 13.0 12.7 65 0.0 5.0 256 13.7 172
15:30 - 16:00 12.9 13.0 12.8 67 0.0 2.9 254 8.3 105
16:00 - 16:30 12.4 13.2 11.1 71 0.0 0.7 215 4.7 34
16:30 - 17:00 10.0 11.0 9.4 82 0.0 2.2 168 8.6 0
17:00 - 17:30 9.8 10.4 9.3 76 0.0 4.0 337 10.8 0
17:30 - 18:00 9.6 10.5 8.6 63 0.0 5.0 288 19.1 0
18:00 - 18:30 9.9 10.7 8.6 60 0.0 3.6 257 11.2 0
18:30 - 19:00 8.4 9.3 7.5 66 0.0 4.3 278 15.5 0
19:00 - 19:30 8.8 9.1 8.5 63 0.0 9.0 254 17.3 0
19:30 - 20:00 8.6 8.9 8.1 61 0.0 3.6 262 10.8 0
20:00 - 20:30 8.1 9.5 6.5 63 0.0 5.0 260 16.6 0
20:30 - 21:00 7.5 8.4 6.7 64 0.0 2.2 295 9.0 0
21:00 - 21:30 6.0 6.9 4.8 74 0.0 0.7 157 4.3 0
21:30 - 22:00 6.1 6.9 5.3 79 0.0 3.2 17 7.2 0

Les dades en taronja només han passat un control de qualitat automàtic. Resta pendent la seva validació definitiva.